默认 日期 大小 文件数 浏览量 最新下载 xml
第一季-磁力链接相关资源由用户搜索指令自动获取,结果来源于网络,本站不存储任何资料,亦不承担任何责任,请于24小时内删除,搜索到26034个磁力,显示前4000条数据,用时76ms。
    {"Money Heist S01E01 1080p NF WEBRip CHS • CHAOSPACE.mp4": 1117284655, "Money Heist S01E02 1080p NF WEBRip CHS • CHAOSPACE.mp4": 969467642, "Money Heist S01E03 1080p NF WEBRip CHS • CHAOSPACE.mp4": 1191973148, "Money Heist S01E04 1080p NF WEBRip CHS • ...
创建时间: 2021-03-07 19:55:33 大小:13.31 GB 文件数量:13 热度:263 最近下载:2025-10-16 21:51:02
    ... ": 1942687006, "恐怖大师 .E02 大海战2 ... ": 2106932057, "恐怖大师 .E03 大海战2 ... ": 2308018991, "恐怖大师 .E04 大海战2 ... ": 2223387792, "恐怖大师 .E05 大海战2 ... 2316205096, "恐怖大师 .E06 大海战2 ... 2242306235, "恐怖大师 .E07 大海战2 ... 2197342701, "恐怖大师 .E08 大海战2 ... 2251286014, "恐怖大师 .E09 大海战2 ...
创建时间: 2021-03-08 05:36:34 大小:27.07 GB 文件数量:39 热度:124 最近下载:2025-10-14 10:38:01
    ... , "半泽直树102。预览.mkv ... 裙 476557880】.torrent": 108765, "路向西2D+3D ... 坟墓全集。共5部。【 ... 野间谍1+2。1080P中字。 ... 游戏。1-8合集。衣柜 ... , "黑吃黑1-4。删减床戏 ... 语合集。3全+番外篇。 ... 国众神1+2。完整未删 ... 召女友1-2。激情戏祼 ... 耻之徒1-8。被删减裸 ... 师。剧版5+电影版。十 ... 自修室1-2合集。十万 ... 319940383】.torrent": 194872, "同个世界:共 ... , "半泽直树1(9.2)。 ... , "半泽直树2(9.4)。 ...
创建时间: 2021-03-08 12:35:43 大小:15.11 GB 文件数量:100 热度:220 最近下载:2025-10-15 09:59:02
    {"获取更多!.url": 125, "下载更多地址.txt": 98, "客户端(电脑版4.0).zip": 268532, "清纯漂亮的初中妹子发育的很好.mp4": 78792143}
创建时间: 2021-03-09 19:31:41 大小:75.4 MB 文件数量:4 热度:301 最近下载:2025-08-05 22:08:10
    {"资源声明.txt": 394, "更多免费资源.gif": 757022, "91天堂CNSW松尾系列豪华精品原版大片-:女友闺蜜的F-CUP诱惑,极品浑圆巨乳美女,海军制服诱惑,倚[1080p].mp4": 226081488}
创建时间: 2021-03-11 01:19:18 大小:216.33 MB 文件数量:3 热度:51 最近下载:2025-09-18 07:31:02
    {"91天堂CNSW松尾系列豪华精品原版大片-:女友闺蜜的F-CUP诱惑,极品浑圆巨乳美女,海军制服诱惑,倚靠桌前疯狂后入输出,肤白乳美极致诱惑 ~1080P高清完整版!.mp4": 1575408361}
创建时间: 2021-03-11 19:42:45 大小:1.47 GB 文件数量:1 热度:224 最近下载:2025-10-10 04:52:02
    {"获取更多.url": 125, "更多下载地址.txt": 98, "大胸初中生脱衣秀胸.mp4": 81526638, "高中生脱衣展示身材.mp4": 39812753, "最新地址客户端(电脑版4.0).exe": 382976, "初中生姐妹两长的好看秀身材.mp4": 213403262}
创建时间: 2021-03-12 01:23:09 大小:319.6 MB 文件数量:6 热度:294 最近下载:2025-05-15 02:50:02
    ... 2062188707, "[天籁之战][02][国语中字 ... 2185924501, "[天籁之战][03][国语中字 ... 2251564057, "[天籁之战][04][国语中字 ... 2130552682, "[天籁之战][05][国语中字 ... 2178373238, "[天籁之战][06][国语中字 ... 2191968671, "[天籁之战][07][国语中字 ... 2173293672, "[天籁之战][08][国语中字 ... 2174748832, "[天籁之战][09][国语中字 ...
创建时间: 2021-03-12 07:18:53 大小:24.98 GB 文件数量:23 热度:39 最近下载:2025-10-15 00:45:03
    {"资源声明.txt": 394, "更多免费资源.gif": 757022, "疯狂性爱小视频精彩合集推荐各种爆操各种场所各式美女各种姿势各式浪叫各种美乳高清无水印版.mp4": 243907280}
创建时间: 2021-03-12 12:52:47 大小:233.33 MB 文件数量:3 热度:40 最近下载:2025-03-30 20:57:02
    {"最新域名及域名找回.txt": 462, "点击进入bde4.cc哔嘀影视高清在线网站.url": 86, "克拉丽斯..2021.S01E04.HD1080P.X264.AAC.English.CHS-ENG.BDE4.mp4": 708336292}
创建时间: 2021-03-12 17:46:28 大小:675.52 MB 文件数量:3 热度:22 最近下载:2025-10-06 22:58:03
    {"最新域名及域名找回.txt": 462, "点击进入bde4.cc哔嘀影视高清在线网站.url": 86, "外星居民..2021.S01E06.HD1080P.X264.AAC.English.CHS-ENG.BDE4.mp4": 1040462153}
创建时间: 2021-03-14 04:56:42 大小:992.26 MB 文件数量:3 热度:35 最近下载:2025-10-09 18:02:35
    {"球类烟花.f4v": 13476164, "太空堡垒卡拉狄加.Battlestar.Galactica.S01E01.Chi_Eng.BD-HR.AAC.1024X576.x264-YYeTs人人影视.mkv": 502394096, "太空堡垒卡拉狄加.Battlestar.Galactica.S01E02.Chi_Eng.BD-HR.AAC.1024X576.x264-YYeTs人人影视.mkv": 490772568, "太空堡垒卡拉狄加.Battlestar.Galactica.S01E03. ...
创建时间: 2021-03-15 15:58:47 大小:5.97 GB 文件数量:14 热度:48 最近下载:2025-10-13 00:48:03
    ... ぎですか? 01話(BD 1920x1080 HEVC ... ぎですか? 02話(BD 1920x1080 HEVC ... ぎですか? 03話(BD 1920x1080 HEVC ... ぎですか? 04話(BD 1920x1080 HEVC ... ぎですか? 05話(BD 1920x1080 HEVC ... ぎですか? 06話(BD 1920x1080 HEVC ... ぎですか? 07話(BD 1920x1080 HEVC ... ぎですか? 08話(BD 1920x1080 HEVC ...
创建时间: 2021-03-17 07:48:32 大小:11.6 GB 文件数量:47 热度:7 最近下载:2025-09-23 04:37:01
    {"Miranda.S01E01.DVDrip.624x352.中英双语.精校典藏版-电波字幕组.mp4": 194579762, "Miranda.S01E02.DVDrip.624x352.中英双语.精校典藏版-电波字幕组.mp4": 198055750, "Miranda.S01E03.DVDrip.624x352.中英双语.精校典藏版-电波字幕组.mp4": 195578061, "Miranda.S01E04.DVDrip.624x352.中英双语.精校典藏版-电波字幕组.mp4": ...
创建时间: 2021-03-18 01:14:34 大小:1.1 GB 文件数量:11 热度:39 最近下载:2025-10-06 12:34:02
    {"最新域名及域名找回.txt": 462, "点击进入bde4.cc哔嘀影视高清在线网站.url": 86, "格雷斯..2021.S01E01.HD1080P.X264.AAC.English.CHS-ENG.BDE4.mp4": 3410724132}
创建时间: 2021-03-19 05:20:56 大小:3.18 GB 文件数量:3 热度:12 最近下载:2025-10-14 15:20:03
    ... 磺泉的秘密..2021.S01E10.HD1080P.X264.AAC ... 磺泉的秘密..2021.S01E11.HD1080P.X264.AAC ...
创建时间: 2021-03-19 10:06:12 大小:2.95 GB 文件数量:4 热度:16 最近下载:2025-09-17 19:47:07
    {"最新域名及域名找回.txt": 462, "点击进入bde4.cc哔嘀影视高清在线网站.url": 86, "德州巡警..2021.S01E06.HD1080P.X264.AAC.English.CHS-ENG.BDE4.mp4": 1844538666}
创建时间: 2021-03-19 10:11:42 大小:1.72 GB 文件数量:3 热度:19 最近下载:2025-09-29 00:46:02
    ... , "行星地球..DIY简繁.Planet Earth ... 权力的游戏..港版中字5 ... 力的游戏.1-7.全67集.蓝 ... 权力的游戏..港版中字5 ... .torrent": 2012448, "【1996年68届奥斯卡 ...
创建时间: 2021-03-20 04:46:46 大小:43.97 GB 文件数量:33 热度:69 最近下载:2025-10-07 03:11:04
    ... 03.rmvb": 196268836, "飞狼04.rmvb": 183597336, "飞狼 ... 05.rmvb": 190590994, "飞狼 ... 06.rmvb": 195294448, "飞狼 ... 07.rmvb": 191278139, "飞狼 ...
创建时间: 2021-03-20 06:32:07 大小:2.18 GB 文件数量:11 热度:22 最近下载:2025-09-19 07:07:04
    {"新增1.rar": 16152081893, "新增2.rar": 5013337116, "新增3.rar": 11446490550, "新增4.rar": 9825092229, "新增5.rar": 13884074878, "新增6.rar": 12787387964, "新增7.rar": 11584043061, "新增8.rar": 11972844517, "新增9.rar": 11807812407, "经典1.rar": 9572807389, "经典2.rar": ...
创建时间: 2021-03-20 18:43:36 大小:192.09 GB 文件数量:35 热度:1918 最近下载:2022-10-24 05:40:32